sensor_id;sensor_type;location;lat;lon;timestamp;P1;durP1;ratioP1;P2;durP2;ratioP2
44189;SDS011;29856;52.144;5.430;2023-06-22T00:01:05;9.13;;;7.32;;
44189;SDS011;29856;52.144;5.430;2023-06-22T00:03:30;9.55;;;7.82;;
44189;SDS011;29856;52.144;5.430;2023-06-22T00:05:56;8.43;;;6.10;;
44189;SDS011;29856;52.144;5.430;2023-06-22T00:08:21;8.52;;;7.45;;
44189;SDS011;29856;52.144;5.430;2023-06-22T00:10:47;7.78;;;6.43;;
44189;SDS011;29856;52.144;5.430;2023-06-22T00:13:13;8.07;;;6.13;;
44189;SDS011;29856;52.144;5.430;2023-06-22T00:15:39;9.70;;;7.30;;
44189;SDS011;29856;52.144;5.430;2023-06-22T00:18:06;9.48;;;7.13;;
44189;SDS011;29856;52.144;5.430;2023-06-22T00:20:32;9.20;;;7.20;;
44189;SDS011;29856;52.144;5.430;2023-06-22T00:22:58;8.30;;;6.85;;
44189;SDS011;29856;52.144;5.430;2023-06-22T00:25:25;9.60;;;7.57;;
44189;SDS011;29856;52.144;5.430;2023-06-22T00:27:51;12.10;;;7.68;;
44189;SDS011;29856;52.144;5.430;2023-06-22T00:30:17;9.02;;;7.45;;
44189;SDS011;29856;52.144;5.430;2023-06-22T00:32:43;8.98;;;8.07;;
44189;SDS011;29856;52.144;5.430;2023-06-22T00:35:09;9.35;;;7.43;;
44189;SDS011;29856;52.144;5.430;2023-06-22T00:37:35;12.25;;;8.38;;
44189;SDS011;29856;52.144;5.430;2023-06-22T00:40:01;8.23;;;6.50;;
44189;SDS011;29856;52.144;5.430;2023-06-22T00:42:27;8.80;;;7.22;;
44189;SDS011;29856;52.144;5.430;2023-06-22T00:44:54;8.95;;;6.88;;
44189;SDS011;29856;52.144;5.430;2023-06-22T00:47:19;10.45;;;7.07;;
44189;SDS011;29856;52.144;5.430;2023-06-22T00:49:46;7.78;;;6.65;;
44189;SDS011;29856;52.144;5.430;2023-06-22T00:52:13;8.27;;;7.22;;
44189;SDS011;29856;52.144;5.430;2023-06-22T00:54:42;8.95;;;7.18;;
44189;SDS011;29856;52.144;5.430;2023-06-22T00:57:08;9.80;;;6.90;;
44189;SDS011;29856;52.144;5.430;2023-06-22T00:59:35;8.27;;;7.20;;
44189;SDS011;29856;52.144;5.430;2023-06-22T01:02:01;8.07;;;6.18;;
44189;SDS011;29856;52.144;5.430;2023-06-22T01:04:35;7.95;;;7.15;;
44189;SDS011;29856;52.144;5.430;2023-06-22T01:10:02;9.50;;;7.50;;
44189;SDS011;29856;52.144;5.430;2023-06-22T01:12:32;9.40;;;6.85;;
44189;SDS011;29856;52.144;5.430;2023-06-22T01:17:36;10.15;;;6.82;;
44189;SDS011;29856;52.144;5.430;2023-06-22T01:20:06;7.60;;;6.80;;
44189;SDS011;29856;52.144;5.430;2023-06-22T01:22:43;7.50;;;6.60;;
44189;SDS011;29856;52.144;5.430;2023-06-22T01:25:20;11.15;;;6.55;;
44189;SDS011;29856;52.144;5.430;2023-06-22T01:28:04;11.48;;;8.15;;
44189;SDS011;29856;52.144;5.430;2023-06-22T01:30:39;11.20;;;8.27;;
44189;SDS011;29856;52.144;5.430;2023-06-22T01:33:06;8.93;;;7.53;;
44189;SDS011;29856;52.144;5.430;2023-06-22T01:35:35;8.27;;;6.43;;
44189;SDS011;29856;52.144;5.430;2023-06-22T01:38:01;9.10;;;8.18;;
44189;SDS011;29856;52.144;5.430;2023-06-22T01:40:27;8.57;;;6.03;;
44189;SDS011;29856;52.144;5.430;2023-06-22T01:42:54;8.30;;;7.40;;
44189;SDS011;29856;52.144;5.430;2023-06-22T01:45:20;8.25;;;6.32;;
44189;SDS011;29856;52.144;5.430;2023-06-22T01:47:46;7.20;;;6.47;;
44189;SDS011;29856;52.144;5.430;2023-06-22T01:50:12;7.68;;;6.53;;
44189;SDS011;29856;52.144;5.430;2023-06-22T01:52:38;8.02;;;6.40;;
44189;SDS011;29856;52.144;5.430;2023-06-22T01:55:03;9.18;;;8.05;;
44189;SDS011;29856;52.144;5.430;2023-06-22T01:57:29;10.13;;;7.22;;
44189;SDS011;29856;52.144;5.430;2023-06-22T02:02:33;9.60;;;7.63;;
44189;SDS011;29856;52.144;5.430;2023-06-22T02:05:08;10.55;;;7.85;;
44189;SDS011;29856;52.144;5.430;2023-06-22T02:07:41;7.13;;;6.40;;
44189;SDS011;29856;52.144;5.430;2023-06-22T02:10:12;9.85;;;7.68;;
44189;SDS011;29856;52.144;5.430;2023-06-22T02:12:40;9.77;;;7.10;;
44189;SDS011;29856;52.144;5.430;2023-06-22T02:15:07;10.25;;;8.55;;
44189;SDS011;29856;52.144;5.430;2023-06-22T02:17:35;10.55;;;8.38;;
44189;SDS011;29856;52.144;5.430;2023-06-22T02:20:03;9.38;;;6.95;;
44189;SDS011;29856;52.144;5.430;2023-06-22T02:22:29;8.43;;;6.95;;
44189;SDS011;29856;52.144;5.430;2023-06-22T02:24:55;9.05;;;6.75;;
44189;SDS011;29856;52.144;5.430;2023-06-22T02:27:21;11.65;;;7.07;;
44189;SDS011;29856;52.144;5.430;2023-06-22T02:29:47;8.57;;;7.65;;
44189;SDS011;29856;52.144;5.430;2023-06-22T02:32:12;11.00;;;7.28;;
44189;SDS011;29856;52.144;5.430;2023-06-22T02:34:38;9.13;;;6.60;;
44189;SDS011;29856;52.144;5.430;2023-06-22T02:37:03;9.38;;;7.00;;
44189;SDS011;29856;52.144;5.430;2023-06-22T02:39:29;7.88;;;6.20;;
44189;SDS011;29856;52.144;5.430;2023-06-22T02:41:54;8.05;;;6.55;;
44189;SDS011;29856;52.144;5.430;2023-06-22T02:44:20;8.13;;;7.30;;
44189;SDS011;29856;52.144;5.430;2023-06-22T02:46:46;8.25;;;7.20;;
44189;SDS011;29856;52.144;5.430;2023-06-22T02:49:12;8.05;;;6.82;;
44189;SDS011;29856;52.144;5.430;2023-06-22T02:51:38;8.60;;;7.70;;
44189;SDS011;29856;52.144;5.430;2023-06-22T02:54:06;13.05;;;8.70;;
44189;SDS011;29856;52.144;5.430;2023-06-22T02:56:31;10.30;;;7.95;;
44189;SDS011;29856;52.144;5.430;2023-06-22T02:58:57;10.00;;;8.20;;
44189;SDS011;29856;52.144;5.430;2023-06-22T03:01:22;9.70;;;7.82;;
44189;SDS011;29856;52.144;5.430;2023-06-22T03:03:48;10.70;;;8.15;;
44189;SDS011;29856;52.144;5.430;2023-06-22T03:06:13;11.27;;;9.23;;
44189;SDS011;29856;52.144;5.430;2023-06-22T03:08:39;11.45;;;10.02;;
44189;SDS011;29856;52.144;5.430;2023-06-22T03:11:04;12.98;;;8.75;;
44189;SDS011;29856;52.144;5.430;2023-06-22T03:13:30;13.57;;;10.60;;
44189;SDS011;29856;52.144;5.430;2023-06-22T03:15:55;9.85;;;7.40;;
44189;SDS011;29856;52.144;5.430;2023-06-22T03:18:21;10.77;;;8.55;;
44189;SDS011;29856;52.144;5.430;2023-06-22T03:20:46;8.98;;;7.97;;
44189;SDS011;29856;52.144;5.430;2023-06-22T03:23:12;12.10;;;8.60;;
44189;SDS011;29856;52.144;5.430;2023-06-22T03:25:37;11.15;;;9.55;;
44189;SDS011;29856;52.144;5.430;2023-06-22T03:28:03;9.82;;;8.57;;
44189;SDS011;29856;52.144;5.430;2023-06-22T03:30:28;7.18;;;6.47;;
44189;SDS011;29856;52.144;5.430;2023-06-22T03:32:54;9.40;;;8.13;;
44189;SDS011;29856;52.144;5.430;2023-06-22T03:35:19;9.90;;;8.90;;
44189;SDS011;29856;52.144;5.430;2023-06-22T03:37:45;8.25;;;7.07;;
44189;SDS011;29856;52.144;5.430;2023-06-22T03:40:10;11.73;;;8.82;;
44189;SDS011;29856;52.144;5.430;2023-06-22T03:42:36;9.70;;;8.20;;
44189;SDS011;29856;52.144;5.430;2023-06-22T03:45:02;13.27;;;9.20;;
44189;SDS011;29856;52.144;5.430;2023-06-22T03:47:28;12.10;;;8.93;;
44189;SDS011;29856;52.144;5.430;2023-06-22T03:49:53;13.73;;;10.23;;
44189;SDS011;29856;52.144;5.430;2023-06-22T03:52:19;13.95;;;8.90;;
44189;SDS011;29856;52.144;5.430;2023-06-22T03:54:44;11.77;;;8.45;;
44189;SDS011;29856;52.144;5.430;2023-06-22T03:57:10;14.10;;;10.43;;
44189;SDS011;29856;52.144;5.430;2023-06-22T03:59:35;11.38;;;9.20;;
44189;SDS011;29856;52.144;5.430;2023-06-22T04:02:01;9.85;;;8.77;;
44189;SDS011;29856;52.144;5.430;2023-06-22T04:04:26;15.05;;;8.98;;
44189;SDS011;29856;52.144;5.430;2023-06-22T04:06:52;13.73;;;9.52;;
44189;SDS011;29856;52.144;5.430;2023-06-22T04:09:17;14.07;;;9.27;;
44189;SDS011;29856;52.144;5.430;2023-06-22T04:11:43;13.38;;;10.35;;
44189;SDS011;29856;52.144;5.430;2023-06-22T04:14:08;12.95;;;9.80;;
44189;SDS011;29856;52.144;5.430;2023-06-22T04:16:34;13.52;;;10.93;;
44189;SDS011;29856;52.144;5.430;2023-06-22T04:18:59;12.35;;;10.57;;
44189;SDS011;29856;52.144;5.430;2023-06-22T04:21:25;13.35;;;10.52;;
44189;SDS011;29856;52.144;5.430;2023-06-22T04:23:50;10.25;;;7.72;;
44189;SDS011;29856;52.144;5.430;2023-06-22T04:26:16;11.27;;;7.95;;
44189;SDS011;29856;52.144;5.430;2023-06-22T04:28:41;12.32;;;8.80;;
44189;SDS011;29856;52.144;5.430;2023-06-22T04:31:07;12.48;;;8.90;;
44189;SDS011;29856;52.144;5.430;2023-06-22T04:33:32;11.38;;;10.10;;
44189;SDS011;29856;52.144;5.430;2023-06-22T04:35:58;17.55;;;12.50;;
44189;SDS011;29856;52.144;5.430;2023-06-22T04:38:24;11.35;;;9.80;;
44189;SDS011;29856;52.144;5.430;2023-06-22T04:40:50;13.80;;;10.10;;
44189;SDS011;29856;52.144;5.430;2023-06-22T04:43:16;13.07;;;11.57;;
44189;SDS011;29856;52.144;5.430;2023-06-22T04:45:41;17.05;;;13.27;;
44189;SDS011;29856;52.144;5.430;2023-06-22T04:48:07;15.27;;;12.73;;
44189;SDS011;29856;52.144;5.430;2023-06-22T04:50:33;18.25;;;12.82;;
44189;SDS011;29856;52.144;5.430;2023-06-22T04:52:58;15.00;;;12.57;;
44189;SDS011;29856;52.144;5.430;2023-06-22T04:55:24;17.13;;;14.15;;
44189;SDS011;29856;52.144;5.430;2023-06-22T04:57:49;16.17;;;12.48;;
44189;SDS011;29856;52.144;5.430;2023-06-22T05:00:15;16.23;;;12.45;;
44189;SDS011;29856;52.144;5.430;2023-06-22T05:02:43;17.00;;;13.13;;
44189;SDS011;29856;52.144;5.430;2023-06-22T05:05:09;16.90;;;12.98;;
44189;SDS011;29856;52.144;5.430;2023-06-22T05:07:36;25.02;;;15.90;;
44189;SDS011;29856;52.144;5.430;2023-06-22T05:10:02;19.08;;;15.50;;
44189;SDS011;29856;52.144;5.430;2023-06-22T05:12:28;17.63;;;15.73;;
44189;SDS011;29856;52.144;5.430;2023-06-22T05:14:54;18.67;;;16.67;;
44189;SDS011;29856;52.144;5.430;2023-06-22T05:17:20;23.05;;;16.67;;
44189;SDS011;29856;52.144;5.430;2023-06-22T05:19:45;24.77;;;18.45;;
44189;SDS011;29856;52.144;5.430;2023-06-22T05:22:11;24.02;;;17.90;;
44189;SDS011;29856;52.144;5.430;2023-06-22T05:24:36;23.00;;;18.17;;
44189;SDS011;29856;52.144;5.430;2023-06-22T05:27:02;24.92;;;18.50;;
44189;SDS011;29856;52.144;5.430;2023-06-22T05:29:28;31.05;;;23.27;;
44189;SDS011;29856;52.144;5.430;2023-06-22T05:31:53;29.50;;;23.33;;
44189;SDS011;29856;52.144;5.430;2023-06-22T05:34:18;29.65;;;23.27;;
44189;SDS011;29856;52.144;5.430;2023-06-22T05:36:44;25.52;;;20.35;;
44189;SDS011;29856;52.144;5.430;2023-06-22T05:39:13;24.90;;;19.83;;
44189;SDS011;29856;52.144;5.430;2023-06-22T05:41:39;28.45;;;22.40;;
44189;SDS011;29856;52.144;5.430;2023-06-22T05:44:05;28.10;;;22.63;;
44189;SDS011;29856;52.144;5.430;2023-06-22T05:46:31;30.40;;;20.98;;
44189;SDS011;29856;52.144;5.430;2023-06-22T05:48:56;27.52;;;22.33;;
44189;SDS011;29856;52.144;5.430;2023-06-22T05:51:22;31.15;;;23.73;;
44189;SDS011;29856;52.144;5.430;2023-06-22T05:53:47;30.67;;;25.30;;
44189;SDS011;29856;52.144;5.430;2023-06-22T05:56:13;30.67;;;24.02;;
44189;SDS011;29856;52.144;5.430;2023-06-22T05:58:38;31.85;;;23.67;;
44189;SDS011;29856;52.144;5.430;2023-06-22T06:01:04;32.90;;;27.58;;
44189;SDS011;29856;52.144;5.430;2023-06-22T06:03:29;34.15;;;24.30;;
44189;SDS011;29856;52.144;5.430;2023-06-22T06:05:55;28.80;;;22.95;;
44189;SDS011;29856;52.144;5.430;2023-06-22T06:08:20;37.55;;;27.65;;
44189;SDS011;29856;52.144;5.430;2023-06-22T06:10:46;31.60;;;26.15;;
44189;SDS011;29856;52.144;5.430;2023-06-22T06:13:11;30.45;;;24.50;;
44189;SDS011;29856;52.144;5.430;2023-06-22T06:15:37;36.30;;;24.20;;
44189;SDS011;29856;52.144;5.430;2023-06-22T06:18:02;31.48;;;23.67;;
44189;SDS011;29856;52.144;5.430;2023-06-22T06:20:28;28.25;;;22.60;;
44189;SDS011;29856;52.144;5.430;2023-06-22T06:22:54;27.80;;;21.42;;
44189;SDS011;29856;52.144;5.430;2023-06-22T06:25:20;29.08;;;22.80;;
44189;SDS011;29856;52.144;5.430;2023-06-22T06:27:46;30.80;;;24.27;;
44189;SDS011;29856;52.144;5.430;2023-06-22T06:30:12;26.38;;;22.73;;
44189;SDS011;29856;52.144;5.430;2023-06-22T06:32:38;27.60;;;22.42;;
44189;SDS011;29856;52.144;5.430;2023-06-22T06:35:08;27.52;;;22.33;;
44189;SDS011;29856;52.144;5.430;2023-06-22T06:37:41;29.50;;;22.00;;
44189;SDS011;29856;52.144;5.430;2023-06-22T06:40:08;31.42;;;23.00;;
44189;SDS011;29856;52.144;5.430;2023-06-22T06:42:34;24.80;;;21.95;;
44189;SDS011;29856;52.144;5.430;2023-06-22T06:45:00;25.65;;;21.40;;
44189;SDS011;29856;52.144;5.430;2023-06-22T06:47:25;26.65;;;21.58;;
44189;SDS011;29856;52.144;5.430;2023-06-22T06:49:51;28.75;;;22.90;;
44189;SDS011;29856;52.144;5.430;2023-06-22T06:52:16;25.20;;;21.70;;
44189;SDS011;29856;52.144;5.430;2023-06-22T06:54:42;31.80;;;21.73;;
44189;SDS011;29856;52.144;5.430;2023-06-22T06:57:07;21.75;;;19.17;;
44189;SDS011;29856;52.144;5.430;2023-06-22T06:59:33;26.48;;;20.85;;
44189;SDS011;29856;52.144;5.430;2023-06-22T07:01:58;26.02;;;21.83;;
44189;SDS011;29856;52.144;5.430;2023-06-22T07:04:24;22.25;;;19.80;;
44189;SDS011;29856;52.144;5.430;2023-06-22T07:06:49;24.40;;;18.88;;
44189;SDS011;29856;52.144;5.430;2023-06-22T07:09:15;23.83;;;18.38;;
44189;SDS011;29856;52.144;5.430;2023-06-22T07:11:40;21.85;;;16.83;;
44189;SDS011;29856;52.144;5.430;2023-06-22T07:14:06;22.77;;;16.52;;
44189;SDS011;29856;52.144;5.430;2023-06-22T07:16:31;19.70;;;16.33;;
44189;SDS011;29856;52.144;5.430;2023-06-22T07:18:57;19.00;;;16.27;;
44189;SDS011;29856;52.144;5.430;2023-06-22T07:21:22;20.10;;;15.77;;
44189;SDS011;29856;52.144;5.430;2023-06-22T07:23:47;22.08;;;15.93;;
44189;SDS011;29856;52.144;5.430;2023-06-22T07:26:13;20.90;;;15.30;;
44189;SDS011;29856;52.144;5.430;2023-06-22T07:28:38;19.83;;;15.45;;
44189;SDS011;29856;52.144;5.430;2023-06-22T07:31:04;18.27;;;14.77;;
44189;SDS011;29856;52.144;5.430;2023-06-22T07:33:29;16.20;;;13.73;;
44189;SDS011;29856;52.144;5.430;2023-06-22T07:35:55;18.35;;;15.00;;
44189;SDS011;29856;52.144;5.430;2023-06-22T07:38:20;19.05;;;14.95;;
44189;SDS011;29856;52.144;5.430;2023-06-22T07:40:47;18.60;;;14.80;;
44189;SDS011;29856;52.144;5.430;2023-06-22T07:43:12;18.33;;;14.13;;
44189;SDS011;29856;52.144;5.430;2023-06-22T07:45:38;16.30;;;14.43;;
44189;SDS011;29856;52.144;5.430;2023-06-22T07:48:03;15.95;;;13.80;;
44189;SDS011;29856;52.144;5.430;2023-06-22T07:50:29;17.27;;;14.30;;
44189;SDS011;29856;52.144;5.430;2023-06-22T07:52:54;16.90;;;13.80;;
44189;SDS011;29856;52.144;5.430;2023-06-22T07:55:20;16.23;;;13.82;;
44189;SDS011;29856;52.144;5.430;2023-06-22T07:57:46;19.00;;;14.13;;
44189;SDS011;29856;52.144;5.430;2023-06-22T08:00:13;14.60;;;12.68;;
44189;SDS011;29856;52.144;5.430;2023-06-22T08:02:39;16.00;;;12.45;;
44189;SDS011;29856;52.144;5.430;2023-06-22T08:05:05;13.98;;;11.93;;
44189;SDS011;29856;52.144;5.430;2023-06-22T08:07:31;13.82;;;11.02;;
44189;SDS011;29856;52.144;5.430;2023-06-22T08:09:57;13.73;;;11.05;;
44189;SDS011;29856;52.144;5.430;2023-06-22T08:12:22;13.73;;;10.95;;
44189;SDS011;29856;52.144;5.430;2023-06-22T08:14:48;16.27;;;12.02;;
44189;SDS011;29856;52.144;5.430;2023-06-22T08:17:13;15.05;;;11.82;;
44189;SDS011;29856;52.144;5.430;2023-06-22T08:19:39;15.45;;;11.68;;
44189;SDS011;29856;52.144;5.430;2023-06-22T08:22:05;14.80;;;11.55;;
44189;SDS011;29856;52.144;5.430;2023-06-22T08:24:30;14.95;;;11.50;;
44189;SDS011;29856;52.144;5.430;2023-06-22T08:26:56;13.35;;;11.18;;
44189;SDS011;29856;52.144;5.430;2023-06-22T08:29:21;15.13;;;11.43;;
44189;SDS011;29856;52.144;5.430;2023-06-22T08:31:47;16.33;;;10.57;;
44189;SDS011;29856;52.144;5.430;2023-06-22T08:34:12;14.90;;;10.57;;
44189;SDS011;29856;52.144;5.430;2023-06-22T08:36:38;15.80;;;10.13;;
44189;SDS011;29856;52.144;5.430;2023-06-22T08:39:03;11.10;;;9.25;;
44189;SDS011;29856;52.144;5.430;2023-06-22T08:41:29;11.68;;;9.20;;
44189;SDS011;29856;52.144;5.430;2023-06-22T08:43:54;15.10;;;9.57;;
44189;SDS011;29856;52.144;5.430;2023-06-22T08:46:20;12.13;;;8.93;;
44189;SDS011;29856;52.144;5.430;2023-06-22T08:48:45;11.38;;;8.45;;
44189;SDS011;29856;52.144;5.430;2023-06-22T08:51:11;12.55;;;8.45;;
44189;SDS011;29856;52.144;5.430;2023-06-22T08:53:36;11.07;;;7.55;;
44189;SDS011;29856;52.144;5.430;2023-06-22T08:56:02;8.73;;;6.70;;
44189;SDS011;29856;52.144;5.430;2023-06-22T08:58:27;9.50;;;6.30;;
44189;SDS011;29856;52.144;5.430;2023-06-22T09:00:53;11.40;;;6.47;;
44189;SDS011;29856;52.144;5.430;2023-06-22T09:03:18;11.48;;;8.05;;
44189;SDS011;29856;52.144;5.430;2023-06-22T09:05:44;9.75;;;6.97;;
44189;SDS011;29856;52.144;5.430;2023-06-22T09:08:10;8.55;;;6.50;;
44189;SDS011;29856;52.144;5.430;2023-06-22T09:10:36;8.50;;;6.70;;
44189;SDS011;29856;52.144;5.430;2023-06-22T09:13:02;11.95;;;6.88;;
44189;SDS011;29856;52.144;5.430;2023-06-22T09:15:27;7.10;;;5.50;;
44189;SDS011;29856;52.144;5.430;2023-06-22T09:17:53;7.63;;;6.18;;
44189;SDS011;29856;52.144;5.430;2023-06-22T09:20:18;8.00;;;7.00;;
44189;SDS011;29856;52.144;5.430;2023-06-22T09:22:43;9.55;;;6.45;;
44189;SDS011;29856;52.144;5.430;2023-06-22T09:25:09;6.45;;;5.50;;
44189;SDS011;29856;52.144;5.430;2023-06-22T09:27:35;11.52;;;6.43;;
44189;SDS011;29856;52.144;5.430;2023-06-22T09:30:00;6.38;;;5.40;;
44189;SDS011;29856;52.144;5.430;2023-06-22T09:32:25;6.72;;;5.63;;
44189;SDS011;29856;52.144;5.430;2023-06-22T09:34:51;7.65;;;5.93;;
44189;SDS011;29856;52.144;5.430;2023-06-22T09:37:17;9.02;;;5.53;;
44189;SDS011;29856;52.144;5.430;2023-06-22T09:39:42;7.07;;;5.68;;
44189;SDS011;29856;52.144;5.430;2023-06-22T09:42:08;5.47;;;4.97;;
44189;SDS011;29856;52.144;5.430;2023-06-22T09:44:33;9.30;;;5.85;;
44189;SDS011;29856;52.144;5.430;2023-06-22T09:46:59;7.22;;;4.90;;
44189;SDS011;29856;52.144;5.430;2023-06-22T09:49:25;5.13;;;4.63;;
44189;SDS011;29856;52.144;5.430;2023-06-22T09:51:51;6.88;;;5.90;;
44189;SDS011;29856;52.144;5.430;2023-06-22T09:54:16;8.77;;;4.95;;
44189;SDS011;29856;52.144;5.430;2023-06-22T09:56:42;7.60;;;5.28;;
44189;SDS011;29856;52.144;5.430;2023-06-22T09:59:07;11.75;;;5.38;;
44189;SDS011;29856;52.144;5.430;2023-06-22T10:01:33;8.88;;;4.85;;
44189;SDS011;29856;52.144;5.430;2023-06-22T10:03:58;5.45;;;4.95;;
44189;SDS011;29856;52.144;5.430;2023-06-22T10:06:24;10.50;;;5.85;;
44189;SDS011;29856;52.144;5.430;2023-06-22T10:08:49;7.30;;;5.53;;
44189;SDS011;29856;52.144;5.430;2023-06-22T10:11:16;5.90;;;4.90;;
44189;SDS011;29856;52.144;5.430;2023-06-22T10:13:41;7.03;;;4.47;;
44189;SDS011;29856;52.144;5.430;2023-06-22T10:16:07;5.35;;;4.35;;
44189;SDS011;29856;52.144;5.430;2023-06-22T10:18:32;7.93;;;5.20;;
44189;SDS011;29856;52.144;5.430;2023-06-22T10:20:58;8.63;;;4.72;;
44189;SDS011;29856;52.144;5.430;2023-06-22T10:23:23;7.18;;;4.55;;
44189;SDS011;29856;52.144;5.430;2023-06-22T10:25:49;5.47;;;4.00;;
44189;SDS011;29856;52.144;5.430;2023-06-22T10:28:14;12.45;;;4.60;;
44189;SDS011;29856;52.144;5.430;2023-06-22T10:30:40;8.05;;;4.72;;
44189;SDS011;29856;52.144;5.430;2023-06-22T10:33:07;7.85;;;4.72;;
44189;SDS011;29856;52.144;5.430;2023-06-22T10:35:36;8.82;;;5.00;;
44189;SDS011;29856;52.144;5.430;2023-06-22T10:38:02;6.45;;;4.38;;
44189;SDS011;29856;52.144;5.430;2023-06-22T10:40:28;9.07;;;5.03;;
44189;SDS011;29856;52.144;5.430;2023-06-22T10:42:53;7.55;;;4.50;;
44189;SDS011;29856;52.144;5.430;2023-06-22T10:45:19;9.57;;;4.93;;
44189;SDS011;29856;52.144;5.430;2023-06-22T10:47:44;5.45;;;4.47;;
44189;SDS011;29856;52.144;5.430;2023-06-22T10:50:10;9.95;;;5.05;;
44189;SDS011;29856;52.144;5.430;2023-06-22T10:52:36;7.55;;;5.10;;
44189;SDS011;29856;52.144;5.430;2023-06-22T10:55:01;7.45;;;5.07;;
44189;SDS011;29856;52.144;5.430;2023-06-22T10:57:27;9.02;;;4.82;;
44189;SDS011;29856;52.144;5.430;2023-06-22T10:59:52;7.82;;;5.57;;
44189;SDS011;29856;52.144;5.430;2023-06-22T11:02:18;15.57;;;5.63;;
44189;SDS011;29856;52.144;5.430;2023-06-22T11:04:43;5.65;;;5.00;;
44189;SDS011;29856;52.144;5.430;2023-06-22T11:07:09;6.03;;;5.40;;
44189;SDS011;29856;52.144;5.430;2023-06-22T11:09:35;7.28;;;5.50;;
44189;SDS011;29856;52.144;5.430;2023-06-22T11:12:00;8.10;;;5.68;;
44189;SDS011;29856;52.144;5.430;2023-06-22T11:14:26;7.30;;;5.03;;
44189;SDS011;29856;52.144;5.430;2023-06-22T11:16:54;9.13;;;5.10;;
44189;SDS011;29856;52.144;5.430;2023-06-22T11:19:19;13.13;;;5.90;;
44189;SDS011;29856;52.144;5.430;2023-06-22T11:21:45;8.88;;;7.70;;
44189;SDS011;29856;52.144;5.430;2023-06-22T11:24:10;11.45;;;8.02;;
44189;SDS011;29856;52.144;5.430;2023-06-22T11:26:36;10.73;;;8.52;;
44189;SDS011;29856;52.144;5.430;2023-06-22T11:29:01;11.10;;;8.50;;
44189;SDS011;29856;52.144;5.430;2023-06-22T11:31:27;15.60;;;8.45;;
44189;SDS011;29856;52.144;5.430;2023-06-22T11:33:52;11.30;;;9.18;;
44189;SDS011;29856;52.144;5.430;2023-06-22T11:36:18;13.95;;;9.80;;
44189;SDS011;29856;52.144;5.430;2023-06-22T11:38:44;14.07;;;9.38;;
44189;SDS011;29856;52.144;5.430;2023-06-22T11:41:09;17.92;;;10.18;;
44189;SDS011;29856;52.144;5.430;2023-06-22T11:43:35;13.40;;;10.68;;
44189;SDS011;29856;52.144;5.430;2023-06-22T11:46:02;21.63;;;11.02;;
44189;SDS011;29856;52.144;5.430;2023-06-22T11:48:28;11.60;;;10.38;;
44189;SDS011;29856;52.144;5.430;2023-06-22T11:50:54;13.48;;;9.23;;
44189;SDS011;29856;52.144;5.430;2023-06-22T11:53:20;11.70;;;9.77;;
44189;SDS011;29856;52.144;5.430;2023-06-22T11:55:46;15.07;;;9.80;;
44189;SDS011;29856;52.144;5.430;2023-06-22T11:58:12;12.57;;;10.23;;
44189;SDS011;29856;52.144;5.430;2023-06-22T12:00:38;13.68;;;11.10;;
44189;SDS011;29856;52.144;5.430;2023-06-22T12:03:04;11.85;;;10.40;;
44189;SDS011;29856;52.144;5.430;2023-06-22T12:05:29;13.52;;;10.63;;
44189;SDS011;29856;52.144;5.430;2023-06-22T12:07:54;12.05;;;10.75;;
44189;SDS011;29856;52.144;5.430;2023-06-22T12:10:24;15.68;;;11.50;;
44189;SDS011;29856;52.144;5.430;2023-06-22T12:12:50;15.68;;;10.30;;
44189;SDS011;29856;52.144;5.430;2023-06-22T12:15:16;14.23;;;10.35;;
44189;SDS011;29856;52.144;5.430;2023-06-22T12:17:41;12.55;;;10.57;;
44189;SDS011;29856;52.144;5.430;2023-06-22T12:20:07;12.75;;;10.10;;
44189;SDS011;29856;52.144;5.430;2023-06-22T12:22:33;11.65;;;9.45;;
44189;SDS011;29856;52.144;5.430;2023-06-22T12:24:59;18.35;;;11.45;;
44189;SDS011;29856;52.144;5.430;2023-06-22T12:27:25;17.27;;;11.25;;
44189;SDS011;29856;52.144;5.430;2023-06-22T12:29:51;12.23;;;9.90;;
44189;SDS011;29856;52.144;5.430;2023-06-22T12:32:17;14.80;;;10.88;;
44189;SDS011;29856;52.144;5.430;2023-06-22T12:34:42;20.35;;;11.85;;
44189;SDS011;29856;52.144;5.430;2023-06-22T12:37:08;16.70;;;10.77;;
44189;SDS011;29856;52.144;5.430;2023-06-22T12:39:34;13.55;;;11.07;;
44189;SDS011;29856;52.144;5.430;2023-06-22T12:42:00;15.73;;;10.18;;
44189;SDS011;29856;52.144;5.430;2023-06-22T12:44:25;11.48;;;10.10;;
44189;SDS011;29856;52.144;5.430;2023-06-22T12:46:51;14.30;;;8.95;;
44189;SDS011;29856;52.144;5.430;2023-06-22T12:49:16;10.73;;;9.38;;
44189;SDS011;29856;52.144;5.430;2023-06-22T12:51:42;10.77;;;7.68;;
44189;SDS011;29856;52.144;5.430;2023-06-22T12:54:08;18.23;;;8.00;;
44189;SDS011;29856;52.144;5.430;2023-06-22T12:56:34;7.90;;;7.20;;
44189;SDS011;29856;52.144;5.430;2023-06-22T12:59:00;9.10;;;7.13;;
44189;SDS011;29856;52.144;5.430;2023-06-22T13:01:26;8.40;;;7.20;;
44189;SDS011;29856;52.144;5.430;2023-06-22T13:03:52;11.90;;;7.85;;
44189;SDS011;29856;52.144;5.430;2023-06-22T13:06:17;11.60;;;8.23;;
44189;SDS011;29856;52.144;5.430;2023-06-22T13:08:43;9.10;;;7.75;;
44189;SDS011;29856;52.144;5.430;2023-06-22T13:11:08;8.40;;;7.25;;
44189;SDS011;29856;52.144;5.430;2023-06-22T13:13:34;12.68;;;8.55;;
44189;SDS011;29856;52.144;5.430;2023-06-22T13:15:59;11.68;;;8.32;;
44189;SDS011;29856;52.144;5.430;2023-06-22T13:18:25;10.05;;;8.93;;
44189;SDS011;29856;52.144;5.430;2023-06-22T13:20:50;10.73;;;8.88;;
44189;SDS011;29856;52.144;5.430;2023-06-22T13:23:16;12.48;;;9.27;;
44189;SDS011;29856;52.144;5.430;2023-06-22T13:25:41;14.80;;;10.15;;
44189;SDS011;29856;52.144;5.430;2023-06-22T13:28:06;13.95;;;10.25;;
44189;SDS011;29856;52.144;5.430;2023-06-22T13:30:35;10.93;;;9.75;;
44189;SDS011;29856;52.144;5.430;2023-06-22T13:33:02;14.35;;;9.45;;
44189;SDS011;29856;52.144;5.430;2023-06-22T13:35:27;11.90;;;8.68;;
44189;SDS011;29856;52.144;5.430;2023-06-22T13:37:53;13.75;;;9.98;;
44189;SDS011;29856;52.144;5.430;2023-06-22T13:40:18;18.20;;;9.25;;
44189;SDS011;29856;52.144;5.430;2023-06-22T13:42:45;15.80;;;9.90;;
44189;SDS011;29856;52.144;5.430;2023-06-22T13:45:16;12.55;;;9.25;;
44189;SDS011;29856;52.144;5.430;2023-06-22T13:47:42;10.15;;;8.95;;
44189;SDS011;29856;52.144;5.430;2023-06-22T13:50:08;12.30;;;10.25;;
44189;SDS011;29856;52.144;5.430;2023-06-22T13:52:33;12.32;;;10.00;;
44189;SDS011;29856;52.144;5.430;2023-06-22T13:55:00;12.63;;;9.65;;
44189;SDS011;29856;52.144;5.430;2023-06-22T13:57:26;13.85;;;9.40;;
44189;SDS011;29856;52.144;5.430;2023-06-22T13:59:52;13.70;;;10.25;;
44189;SDS011;29856;52.144;5.430;2023-06-22T14:02:18;12.48;;;10.25;;
44189;SDS011;29856;52.144;5.430;2023-06-22T14:04:45;13.68;;;10.50;;
44189;SDS011;29856;52.144;5.430;2023-06-22T14:07:10;11.18;;;9.88;;
44189;SDS011;29856;52.144;5.430;2023-06-22T14:09:36;12.73;;;9.65;;
44189;SDS011;29856;52.144;5.430;2023-06-22T14:12:05;14.15;;;10.13;;
44189;SDS011;29856;52.144;5.430;2023-06-22T14:14:31;12.18;;;9.98;;
44189;SDS011;29856;52.144;5.430;2023-06-22T14:17:00;12.13;;;10.73;;
44189;SDS011;29856;52.144;5.430;2023-06-22T14:19:25;10.90;;;9.80;;
44189;SDS011;29856;52.144;5.430;2023-06-22T14:21:51;14.60;;;10.63;;
44189;SDS011;29856;52.144;5.430;2023-06-22T14:24:17;14.32;;;10.35;;
44189;SDS011;29856;52.144;5.430;2023-06-22T14:26:42;14.98;;;10.52;;
44189;SDS011;29856;52.144;5.430;2023-06-22T14:29:08;16.25;;;11.80;;
44189;SDS011;29856;52.144;5.430;2023-06-22T14:31:33;14.82;;;11.10;;
44189;SDS011;29856;52.144;5.430;2023-06-22T14:33:58;12.50;;;11.00;;